createdAt,value
2019-02-25T00:00:12.620Z,6.30
2019-02-25T00:02:52.584Z,5.27
2019-02-25T00:05:32.638Z,5.80
2019-02-25T00:08:12.829Z,5.33
2019-02-25T00:10:52.918Z,5.13
2019-02-25T00:13:32.833Z,5.87
2019-02-25T00:16:12.989Z,5.33
2019-02-25T00:18:52.678Z,5.23
2019-02-25T00:21:32.043Z,5.57
2019-02-25T00:24:12.297Z,5.27
2019-02-25T00:26:52.177Z,5.20
2019-02-25T00:29:32.329Z,5.20
2019-02-25T00:32:12.396Z,5.10
2019-02-25T00:34:52.395Z,4.80
2019-02-25T00:37:32.798Z,5.10
2019-02-25T00:40:12.693Z,5.20
2019-02-25T00:42:52.686Z,5.20
2019-02-25T00:45:32.621Z,5.60
2019-02-25T00:48:12.546Z,5.23
2019-02-25T00:50:52.682Z,5.20
2019-02-25T00:53:32.721Z,5.30
2019-02-25T00:56:12.760Z,5.30
2019-02-25T00:58:52.894Z,5.40
2019-02-25T01:01:32.850Z,4.90
2019-02-25T01:04:12.811Z,5.20
2019-02-25T01:06:52.089Z,4.70
2019-02-25T01:09:32.055Z,5.07
2019-02-25T01:12:12.066Z,5.20
2019-02-25T01:14:52.205Z,5.17
2019-02-25T01:17:31.358Z,5.07
2019-02-25T01:20:10.610Z,5.00
2019-02-25T01:22:50.705Z,5.20
2019-02-25T01:25:30.733Z,4.73
2019-02-25T01:28:09.843Z,4.80
2019-02-25T01:30:49.030Z,4.83
2019-02-25T01:33:28.341Z,4.70
2019-02-25T01:36:07.846Z,4.70
2019-02-25T01:38:47.689Z,4.40
2019-02-25T01:41:26.876Z,4.43
2019-02-25T01:44:06.962Z,4.63
2019-02-25T01:46:47.012Z,5.10
2019-02-25T01:49:26.937Z,4.63
2019-02-25T01:52:06.129Z,4.60
2019-02-25T01:54:46.198Z,4.63
2019-02-25T01:57:26.609Z,4.47
2019-02-25T02:00:06.512Z,4.83
2019-02-25T02:02:46.519Z,4.37
2019-02-25T02:05:26.574Z,4.37
2019-02-25T02:08:06.564Z,4.40
2019-02-25T02:10:46.517Z,4.93
2019-02-25T02:13:26.757Z,4.50
2019-02-25T02:16:06.497Z,4.53
2019-02-25T02:18:46.565Z,4.53
2019-02-25T02:21:25.935Z,4.60
2019-02-25T02:24:05.704Z,4.83
2019-02-25T02:26:44.826Z,4.60
2019-02-25T02:29:25.124Z,4.63
2019-02-25T02:32:04.742Z,4.50
2019-02-25T02:34:44.810Z,5.20
2019-02-25T02:37:24.017Z,5.03
2019-02-25T02:40:04.010Z,5.30
2019-02-25T02:42:44.085Z,5.63
2019-02-25T02:45:24.186Z,4.80
2019-02-25T02:48:04.278Z,4.93
2019-02-25T02:50:44.427Z,4.97
2019-02-25T02:53:24.438Z,4.80
2019-02-25T02:55:51.203Z,5.10
2019-02-25T02:58:37.604Z,4.63
2019-02-25T03:01:23.999Z,4.57
2019-02-25T03:04:10.388Z,4.60
2019-02-25T03:06:37.142Z,4.07
2019-02-25T03:09:23.541Z,4.60
2019-02-25T03:12:10.047Z,4.87
2019-02-25T03:14:56.793Z,5.00
2019-02-25T03:17:43.309Z,4.80
2019-02-25T03:20:29.716Z,4.50
2019-02-25T03:23:16.217Z,4.80
2019-02-25T03:26:02.962Z,4.77
2019-02-25T03:28:49.371Z,5.03
2019-02-25T03:31:35.754Z,5.07
2019-02-25T03:34:22.214Z,5.30
2019-02-25T03:37:08.622Z,5.20
2019-02-25T03:39:55.037Z,5.23
2019-02-25T03:42:41.440Z,4.90
2019-02-25T03:45:21.336Z,5.23
2019-02-25T03:48:01.013Z,4.80
2019-02-25T03:50:41.055Z,4.87
2019-02-25T03:53:21.130Z,4.77
2019-02-25T03:56:01.259Z,4.53
2019-02-25T03:58:41.318Z,5.00
2019-02-25T04:01:21.429Z,4.50
2019-02-25T04:04:00.956Z,4.73
2019-02-25T04:07:09.102Z,4.93
2019-02-25T04:09:36.191Z,5.20
2019-02-25T04:12:22.609Z,5.10
2019-02-25T04:18:08.702Z,5.40
2019-02-25T04:20:55.360Z,5.33
2019-02-25T04:23:41.747Z,4.97
2019-02-25T04:26:28.275Z,5.17
2019-02-25T04:29:14.965Z,5.40
2019-02-25T04:32:01.381Z,5.13
2019-02-25T04:34:47.812Z,5.17
2019-02-25T04:37:34.217Z,4.73
2019-02-25T04:40:20.614Z,5.20
2019-02-25T04:43:07.194Z,5.23
2019-02-25T04:45:47.116Z,4.83
2019-02-25T04:48:26.422Z,5.93
2019-02-25T04:51:06.514Z,5.23
2019-02-25T04:53:45.929Z,5.47
2019-02-25T04:56:25.539Z,5.20
2019-02-25T04:59:05.245Z,5.53
2019-02-25T05:01:45.327Z,5.40
2019-02-25T05:04:25.625Z,5.57
2019-02-25T05:07:05.589Z,5.23
2019-02-25T05:09:45.806Z,4.80
2019-02-25T05:12:25.757Z,4.83
2019-02-25T05:15:06.084Z,5.30
2019-02-25T05:17:45.974Z,5.80
2019-02-25T05:20:25.141Z,8.23
2019-02-25T05:23:05.612Z,6.97
2019-02-25T05:25:45.429Z,6.80
2019-02-25T05:28:25.151Z,5.47
2019-02-25T05:31:04.466Z,5.27
2019-02-25T05:36:52.965Z,5.70
2019-02-25T05:39:33.021Z,5.20
2019-02-25T05:42:12.427Z,5.30
2019-02-25T05:44:52.683Z,5.67
2019-02-25T05:47:32.714Z,5.13
2019-02-25T05:50:12.643Z,5.30
2019-02-25T05:52:51.810Z,5.00
2019-02-25T05:55:32.085Z,5.37
2019-02-25T05:58:13.985Z,5.63
2019-02-25T06:00:53.368Z,5.33
2019-02-25T06:03:33.117Z,5.33
2019-02-25T06:06:13.239Z,5.10
2019-02-25T06:08:52.885Z,5.20
2019-02-25T06:11:33.245Z,5.13
2019-02-25T06:14:13.093Z,4.80
2019-02-25T06:16:52.250Z,5.10
2019-02-25T06:19:31.526Z,4.87
2019-02-25T06:22:11.443Z,4.93
2019-02-25T06:24:51.592Z,4.87
2019-02-25T06:27:31.634Z,5.27
2019-02-25T06:30:10.901Z,5.43
2019-02-25T06:32:50.749Z,5.10
2019-02-25T06:35:30.749Z,5.17
2019-02-25T06:38:10.812Z,4.97
2019-02-25T06:40:50.776Z,5.30
2019-02-25T06:43:31.057Z,4.90
2019-02-25T06:46:11.041Z,5.13
2019-02-25T06:48:50.313Z,5.50
2019-02-25T06:51:30.149Z,5.80
2019-02-25T06:54:10.085Z,5.97
2019-02-25T06:56:49.852Z,5.80
2019-02-25T06:59:29.958Z,5.83
2019-02-25T07:02:09.281Z,5.57
2019-02-25T07:04:59.153Z,5.63
2019-02-25T07:07:58.224Z,5.60
2019-02-25T07:10:47.623Z,6.17
2019-02-25T07:13:37.677Z,8.13
2019-02-25T07:16:36.906Z,8.07
2019-02-25T07:19:26.994Z,8.40
2019-02-25T07:22:26.189Z,7.00
2019-02-25T07:25:28.070Z,6.57
2019-02-25T07:28:27.288Z,7.43
2019-02-25T07:31:26.521Z,6.23
2019-02-25T07:34:15.200Z,6.93
2019-02-25T07:37:02.237Z,7.47
2019-02-25T07:40:01.199Z,8.43
2019-02-25T07:42:48.769Z,9.33
2019-02-25T07:45:48.415Z,10.37
2019-02-25T07:48:40.332Z,9.97
2019-02-25T07:51:34.170Z,7.83
2019-02-25T07:54:33.063Z,7.30
2019-02-25T07:57:32.137Z,6.37
2019-02-25T08:00:22.893Z,6.47
2019-02-25T08:03:12.882Z,6.00
2019-02-25T08:06:12.463Z,6.30
2019-02-25T08:09:04.732Z,6.33
2019-02-25T08:12:09.733Z,5.80
2019-02-25T08:14:56.260Z,5.97
2019-02-25T08:18:02.418Z,6.43
2019-02-25T08:21:08.787Z,5.97
2019-02-25T08:24:02.659Z,6.13
2019-02-25T08:27:08.711Z,6.60
2019-02-25T08:30:14.890Z,6.13
2019-02-25T08:33:21.043Z,6.17
2019-02-25T08:36:37.541Z,6.13
2019-02-25T08:39:43.790Z,6.33
2019-02-25T08:42:49.493Z,8.30
2019-02-25T08:45:37.543Z,7.77
2019-02-25T08:48:21.921Z,8.10
2019-02-25T08:51:02.098Z,7.93
2019-02-25T08:53:41.541Z,7.30
2019-02-25T08:56:21.258Z,7.37
2019-02-25T08:59:01.325Z,8.23
2019-02-25T09:01:41.284Z,7.90
2019-02-25T09:04:21.266Z,7.80
2019-02-25T09:07:01.252Z,8.30
2019-02-25T09:09:41.425Z,8.95
2019-02-25T09:12:20.753Z,8.25
2019-02-25T09:15:00.014Z,8.65
2019-02-25T09:17:40.121Z,8.33
2019-02-25T09:20:20.209Z,8.75
2019-02-25T09:23:00.259Z,8.40
2019-02-25T09:25:40.197Z,8.55
2019-02-25T09:28:20.608Z,8.18
2019-02-25T09:31:00.050Z,8.58
2019-02-25T09:33:40.300Z,8.40
2019-02-25T09:36:20.194Z,8.05
2019-02-25T09:38:59.394Z,8.60
2019-02-25T09:41:38.732Z,8.50
2019-02-25T09:44:18.769Z,8.65
2019-02-25T09:46:58.715Z,8.75
2019-02-25T09:49:38.848Z,9.00
2019-02-25T09:52:19.175Z,8.78
2019-02-25T09:54:58.793Z,9.23
2019-02-25T09:57:38.697Z,9.08
2019-02-25T10:00:17.902Z,8.90
2019-02-25T10:02:57.978Z,9.23
2019-02-25T10:05:38.270Z,10.00
2019-02-25T10:08:18.131Z,9.15
2019-02-25T10:10:58.313Z,8.33
2019-02-25T10:13:38.306Z,10.32
2019-02-25T10:16:17.615Z,9.33
2019-02-25T10:18:56.872Z,9.10
2019-02-25T10:21:36.947Z,8.78
2019-02-25T10:24:17.006Z,9.10
2019-02-25T10:26:57.124Z,9.15
2019-02-25T10:29:37.165Z,8.75
2019-02-25T10:32:16.297Z,27.07
2019-02-25T10:34:55.582Z,9.20
2019-02-25T10:37:36.403Z,11.80
2019-02-25T10:40:21.606Z,8.28
2019-02-25T10:42:58.868Z,9.18
2019-02-25T10:45:40.667Z,8.65
2019-02-25T10:48:21.615Z,11.40
2019-02-25T10:51:02.759Z,9.00
2019-02-25T10:53:45.268Z,8.83
2019-02-25T10:56:25.969Z,8.63
2019-02-25T10:59:06.208Z,7.72
2019-02-25T11:01:47.567Z,7.90
2019-02-25T11:04:27.232Z,7.90
2019-02-25T11:07:09.409Z,7.30
2019-02-25T11:10:16.030Z,7.10
2019-02-25T11:12:57.582Z,7.00
2019-02-25T11:15:39.653Z,7.30
2019-02-25T11:18:21.930Z,7.05
2019-02-25T11:21:01.348Z,7.62
2019-02-25T11:23:43.432Z,8.03
2019-02-25T11:26:26.632Z,7.80
2019-02-25T11:29:07.206Z,8.28
2019-02-25T11:31:47.824Z,8.15
2019-02-25T11:34:29.549Z,8.73
2019-02-25T11:37:10.269Z,8.28
2019-02-25T11:39:50.271Z,9.78
2019-02-25T11:42:29.458Z,9.05
2019-02-25T11:45:09.411Z,9.75
2019-02-25T11:47:49.484Z,9.55
2019-02-25T11:50:29.556Z,9.60
2019-02-25T11:53:09.652Z,9.30
2019-02-25T11:55:49.817Z,10.10
2019-02-25T11:58:29.006Z,9.38
2019-02-25T12:01:09.214Z,9.25
2019-02-25T12:03:49.025Z,8.73
2019-02-25T12:06:29.138Z,8.78
2019-02-25T12:09:09.282Z,9.65
2019-02-25T12:11:49.133Z,8.65
2019-02-25T12:14:29.217Z,8.98
2019-02-25T12:17:09.249Z,8.60
2019-02-25T12:19:49.265Z,7.25
2019-02-25T12:22:28.468Z,7.78
2019-02-25T12:25:08.278Z,7.12
2019-02-25T12:27:48.337Z,7.28
2019-02-25T12:30:28.328Z,7.67
2019-02-25T12:33:08.407Z,7.75
2019-02-25T12:35:48.285Z,7.08
2019-02-25T12:38:27.510Z,7.58
2019-02-25T12:41:07.673Z,8.10
2019-02-25T12:43:48.058Z,8.70
2019-02-25T12:46:27.917Z,8.60
2019-02-25T12:49:07.477Z,7.70
2019-02-25T12:51:47.469Z,8.70
2019-02-25T12:54:27.786Z,8.90
2019-02-25T12:57:07.510Z,8.50
2019-02-25T12:59:47.410Z,8.13
2019-02-25T13:02:27.539Z,9.93
2019-02-25T13:05:07.757Z,9.43
2019-02-25T13:07:47.753Z,9.30
2019-02-25T13:10:27.666Z,9.20
2019-02-25T13:13:07.789Z,9.43
2019-02-25T13:15:48.274Z,9.18
2019-02-25T13:18:27.975Z,7.80
2019-02-25T13:21:08.025Z,7.42
2019-02-25T13:23:47.921Z,7.78
2019-02-25T13:26:29.297Z,7.37
2019-02-25T13:29:10.004Z,7.30
2019-02-25T13:31:50.187Z,7.37
2019-02-25T13:34:30.198Z,7.87
2019-02-25T13:37:09.434Z,7.30
2019-02-25T13:39:49.657Z,6.75
2019-02-25T13:42:30.069Z,7.45
2019-02-25T13:45:09.888Z,6.90
2019-02-25T13:47:49.790Z,6.80
2019-02-25T13:50:29.983Z,6.87
2019-02-25T13:53:09.993Z,6.83
2019-02-25T13:55:50.397Z,6.72
2019-02-25T13:58:30.211Z,7.10
2019-02-25T14:01:10.500Z,6.72
2019-02-25T14:03:50.831Z,6.40
2019-02-25T14:06:30.582Z,7.10
2019-02-25T14:09:11.335Z,6.17
2019-02-25T14:11:51.110Z,7.08
2019-02-25T14:14:30.978Z,6.87
2019-02-25T14:17:11.125Z,6.65
2019-02-25T14:19:51.929Z,6.42
2019-02-25T14:22:31.430Z,6.30
2019-02-25T14:25:12.587Z,6.10
2019-02-25T14:27:52.869Z,5.67
2019-02-25T14:30:33.453Z,5.72
2019-02-25T14:33:14.793Z,5.75
2019-02-25T14:35:55.669Z,6.10
2019-02-25T14:38:37.100Z,6.62
2019-02-25T14:41:18.350Z,5.90
2019-02-25T14:43:58.726Z,7.00
2019-02-25T14:46:38.954Z,6.50
2019-02-25T14:49:19.449Z,6.53
2019-02-25T14:51:59.725Z,6.17
2019-02-25T14:54:39.590Z,5.85
2019-02-25T14:57:20.446Z,5.80
2019-02-25T15:00:00.802Z,5.25
2019-02-25T15:02:41.371Z,5.30
2019-02-25T15:05:21.555Z,5.78
2019-02-25T15:08:01.495Z,5.75
2019-02-25T15:10:42.886Z,5.95
2019-02-25T15:13:51.309Z,5.28
2019-02-25T15:16:37.809Z,4.80
2019-02-25T15:19:24.381Z,5.90
2019-02-25T15:22:10.815Z,5.28
2019-02-25T15:24:59.126Z,5.00
2019-02-25T15:27:45.993Z,5.08
2019-02-25T15:30:32.487Z,4.87
2019-02-25T15:33:19.012Z,4.20
2019-02-25T15:36:05.505Z,4.58
2019-02-25T15:38:52.104Z,8.45
2019-02-25T15:41:40.480Z,4.75
2019-02-25T15:44:20.393Z,4.28
2019-02-25T15:47:02.780Z,4.87
2019-02-25T15:49:42.612Z,5.45
2019-02-25T15:52:23.288Z,4.40
2019-02-25T15:55:04.761Z,5.45
2019-02-25T15:57:44.694Z,6.40
2019-02-25T16:00:27.495Z,5.25
2019-02-25T16:03:09.132Z,4.95
2019-02-25T16:05:38.279Z,5.35
2019-02-25T16:08:49.894Z,10.35
2019-02-25T16:11:25.596Z,11.85
2019-02-25T16:13:53.233Z,10.40
2019-02-25T16:16:20.203Z,9.38
2019-02-25T16:18:47.683Z,7.40
2019-02-25T16:21:14.796Z,8.55
2019-02-25T16:23:43.193Z,6.80
2019-02-25T16:26:11.211Z,4.85
2019-02-25T16:28:39.950Z,5.50
2019-02-25T16:31:08.385Z,6.45
2019-02-25T16:33:57.238Z,6.85
2019-02-25T16:36:45.228Z,6.80
2019-02-25T16:39:32.278Z,8.45
2019-02-25T16:42:18.681Z,8.60
2019-02-25T16:45:00.980Z,8.00
2019-02-25T16:47:39.069Z,6.92
2019-02-25T16:50:20.951Z,7.90
2019-02-25T16:53:03.756Z,5.28
2019-02-25T16:55:45.075Z,4.55
2019-02-25T16:58:25.461Z,4.97
2019-02-25T17:01:07.821Z,4.60
2019-02-25T17:03:48.244Z,5.20
2019-02-25T17:06:28.184Z,7.15
2019-02-25T17:09:09.873Z,8.15
2019-02-25T17:11:50.862Z,7.60
2019-02-25T17:14:30.968Z,7.10
2019-02-25T17:17:11.010Z,6.60
2019-02-25T17:19:51.517Z,7.00
2019-02-25T17:22:33.134Z,6.40
2019-02-25T17:25:13.677Z,6.90
2019-02-25T17:27:53.860Z,6.42
2019-02-25T17:30:33.789Z,7.47
2019-02-25T17:35:59.557Z,6.40
2019-02-25T17:38:51.520Z,6.33
2019-02-25T17:41:39.930Z,6.17
2019-02-25T17:44:20.641Z,6.35
2019-02-25T17:47:02.168Z,6.53
2019-02-25T17:49:43.089Z,6.77
2019-02-25T17:52:12.294Z,7.53
2019-02-25T17:54:58.746Z,7.12
2019-02-25T17:57:45.757Z,7.23
2019-02-25T18:00:56.359Z,7.73
2019-02-25T18:03:44.370Z,7.07
2019-02-25T18:06:32.435Z,6.90
2019-02-25T18:09:20.865Z,6.20
2019-02-25T18:12:10.661Z,6.87
2019-02-25T18:14:58.997Z,5.57
2019-02-25T18:17:47.098Z,5.30
2019-02-25T18:20:36.605Z,4.30
2019-02-25T18:23:23.004Z,4.90
2019-02-25T18:26:09.812Z,4.80
2019-02-25T18:28:37.439Z,5.47
2019-02-25T18:31:25.654Z,5.30
2019-02-25T18:34:13.121Z,5.00
2019-02-25T18:37:00.912Z,5.47
2019-02-25T18:39:47.867Z,4.80
2019-02-25T18:42:46.413Z,4.60
2019-02-25T18:45:26.366Z,4.93
2019-02-25T18:48:06.702Z,4.90
2019-02-25T18:50:47.453Z,4.73
2019-02-25T18:53:28.733Z,4.83
2019-02-25T18:56:11.624Z,4.67
2019-02-25T18:58:50.337Z,4.83
2019-02-25T19:01:30.559Z,4.70
2019-02-25T19:04:11.000Z,4.70
2019-02-25T19:06:51.509Z,5.13
2019-02-25T19:09:31.584Z,5.60
2019-02-25T19:12:11.569Z,4.90
2019-02-25T19:14:55.165Z,5.20
2019-02-25T19:17:23.151Z,5.07
2019-02-25T19:20:10.764Z,5.10
2019-02-25T19:23:00.483Z,5.50
2019-02-25T19:25:45.941Z,23.80
2019-02-25T19:28:32.533Z,31.40
2019-02-25T19:31:19.244Z,13.53
2019-02-25T19:34:05.816Z,7.57
2019-02-25T19:36:52.379Z,7.60
2019-02-25T19:39:39.680Z,6.97
2019-02-25T19:42:29.064Z,6.37
2019-02-25T19:45:10.116Z,5.33
2019-02-25T19:47:50.510Z,5.37
2019-02-25T19:50:32.138Z,5.40
2019-02-25T19:53:13.409Z,5.33
2019-02-25T19:55:54.191Z,5.90
2019-02-25T19:58:34.240Z,5.63
2019-02-25T20:01:14.670Z,5.50
2019-02-25T20:03:42.648Z,6.17
2019-02-25T20:06:30.093Z,6.30
2019-02-25T20:12:24.454Z,5.20
2019-02-25T20:15:13.627Z,5.70
2019-02-25T20:18:00.612Z,5.90
2019-02-25T20:20:47.341Z,8.87
2019-02-25T20:23:33.769Z,6.30
2019-02-25T20:26:22.215Z,5.90
2019-02-25T20:29:10.564Z,7.13
2019-02-25T20:31:58.289Z,6.10
2019-02-25T20:34:46.392Z,6.23
2019-02-25T20:37:34.044Z,6.23
2019-02-25T20:40:24.135Z,6.80
2019-02-25T20:43:10.640Z,6.47
2019-02-25T20:45:54.060Z,7.00
2019-02-25T20:48:33.326Z,6.63
2019-02-25T20:51:12.689Z,6.60
2019-02-25T20:53:52.953Z,7.10
2019-02-25T20:56:33.342Z,6.50
2019-02-25T20:59:13.099Z,7.07
2019-02-25T21:01:53.042Z,7.27
2019-02-25T21:04:36.507Z,6.77
2019-02-25T21:07:15.108Z,6.70
2019-02-25T21:09:56.854Z,6.77
2019-02-25T21:12:37.210Z,7.03
2019-02-25T21:15:17.286Z,6.43
2019-02-25T21:17:59.506Z,6.33
2019-02-25T21:20:38.175Z,6.67
2019-02-25T21:23:18.425Z,6.90
2019-02-25T21:26:00.194Z,7.03
2019-02-25T21:28:42.647Z,6.77
2019-02-25T21:31:23.911Z,7.20
2019-02-25T21:34:03.473Z,6.50
2019-02-25T21:36:42.819Z,7.20
2019-02-25T21:39:22.780Z,7.83
2019-02-25T21:42:02.276Z,13.77
2019-02-25T21:44:46.099Z,7.57
2019-02-25T21:47:24.277Z,7.10
2019-02-25T21:50:07.416Z,6.73
2019-02-25T21:52:47.924Z,6.97
2019-02-25T21:55:30.218Z,7.53
2019-02-25T21:58:10.117Z,8.20
2019-02-25T22:00:49.992Z,7.87
2019-02-25T22:03:30.132Z,7.23
2019-02-25T22:06:09.533Z,7.27
2019-02-25T22:08:52.121Z,7.63
2019-02-25T22:11:31.585Z,6.50
2019-02-25T22:14:12.240Z,8.87
2019-02-25T22:16:54.371Z,7.13
2019-02-25T22:19:39.085Z,6.23
2019-02-25T22:22:19.367Z,6.50
2019-02-25T22:25:04.113Z,6.57
2019-02-25T22:27:41.320Z,6.73
2019-02-25T22:30:21.840Z,5.93
2019-02-25T22:33:03.026Z,6.80
2019-02-25T22:35:46.877Z,6.40
2019-02-25T22:38:25.049Z,6.60
2019-02-25T22:41:05.140Z,6.97
2019-02-25T22:43:46.508Z,7.43
2019-02-25T22:46:29.946Z,6.50
2019-02-25T22:49:09.468Z,7.07
2019-02-25T22:51:51.704Z,7.10
2019-02-25T22:54:30.516Z,6.50
2019-02-25T22:57:10.443Z,6.77
2019-02-25T22:59:51.185Z,7.20
2019-02-25T23:02:30.629Z,6.67
2019-02-25T23:05:12.704Z,6.73
2019-02-25T23:07:54.573Z,6.77
2019-02-25T23:10:33.468Z,7.10
2019-02-25T23:13:13.622Z,7.30
2019-02-25T23:15:53.546Z,6.80
2019-02-25T23:18:33.316Z,7.00
2019-02-25T23:21:13.019Z,6.93
2019-02-25T23:23:55.590Z,7.20
2019-02-25T23:26:35.244Z,7.17
2019-02-25T23:29:16.032Z,7.37
2019-02-25T23:31:56.760Z,6.60
2019-02-25T23:34:38.714Z,6.70
2019-02-25T23:37:19.960Z,7.03
2019-02-25T23:40:02.225Z,6.80
2019-02-25T23:42:41.757Z,7.00
2019-02-25T23:45:10.638Z,6.63
2019-02-25T23:47:59.479Z,6.83
2019-02-25T23:50:45.782Z,6.53
2019-02-25T23:53:32.920Z,6.50
2019-02-25T23:56:22.764Z,6.73
2019-02-25T23:59:12.692Z,6.73
